createdAt,value
2023-03-17T00:02:18.960Z,34.10
2023-03-17T00:06:18.593Z,34.05
2023-03-17T00:10:18.778Z,33.99
2023-03-17T00:14:19.021Z,33.98
2023-03-17T00:18:19.202Z,33.95
2023-03-17T00:22:19.413Z,33.93
2023-03-17T00:26:19.642Z,33.81
2023-03-17T00:30:19.880Z,33.78
2023-03-17T00:34:20.070Z,33.70
2023-03-17T00:38:20.305Z,33.73
2023-03-17T00:42:20.483Z,33.69
2023-03-17T00:46:20.799Z,33.69
2023-03-17T00:50:20.907Z,33.69
2023-03-17T00:54:21.113Z,33.66
2023-03-17T00:58:21.347Z,33.61
2023-03-17T01:02:21.605Z,33.65
2023-03-17T01:06:21.774Z,33.60
2023-03-17T01:10:21.973Z,33.59
2023-03-17T01:14:22.190Z,33.54
2023-03-17T01:18:22.570Z,33.46
2023-03-17T01:22:22.357Z,33.45
2023-03-17T01:26:25.054Z,33.43
2023-03-17T01:30:22.293Z,33.33
2023-03-17T01:34:22.282Z,33.35
2023-03-17T01:38:22.241Z,33.41
2023-03-17T01:42:22.212Z,33.34
2023-03-17T01:46:22.128Z,33.32
2023-03-17T01:50:22.129Z,33.22
2023-03-17T01:54:22.146Z,33.18
2023-03-17T01:58:22.094Z,33.14
2023-03-17T02:02:22.054Z,33.21
2023-03-17T02:06:22.053Z,33.19
2023-03-17T02:10:22.016Z,33.13
2023-03-17T02:14:21.964Z,33.13
2023-03-17T02:18:21.916Z,33.08
2023-03-17T02:22:21.884Z,33.07
2023-03-17T02:26:21.850Z,33.01
2023-03-17T02:30:21.807Z,32.96
2023-03-17T02:34:21.954Z,32.92
2023-03-17T02:38:21.923Z,32.93
2023-03-17T02:42:21.885Z,33.01
2023-03-17T02:46:21.895Z,32.93
2023-03-17T02:50:21.810Z,32.85
2023-03-17T02:54:21.741Z,33.04
2023-03-17T02:58:21.748Z,32.89
2023-03-17T03:02:21.770Z,32.91
2023-03-17T03:06:21.681Z,32.81
2023-03-17T03:10:21.613Z,32.76
2023-03-17T03:14:21.566Z,32.95
2023-03-17T03:18:21.653Z,32.73
2023-03-17T03:22:21.791Z,32.89
2023-03-17T03:26:21.951Z,32.83
2023-03-17T03:30:22.176Z,32.70
2023-03-17T03:34:22.377Z,32.72
2023-03-17T03:38:22.568Z,32.78
2023-03-17T03:42:22.704Z,32.87
2023-03-17T03:46:22.882Z,32.65
2023-03-17T03:50:22.981Z,32.60
2023-03-17T03:54:23.130Z,32.62
2023-03-17T03:58:23.237Z,32.71
2023-03-17T04:02:23.417Z,32.56
2023-03-17T04:06:23.427Z,32.57
2023-03-17T04:10:23.520Z,32.50
2023-03-17T04:14:23.598Z,32.47
2023-03-17T04:18:23.696Z,32.50
2023-03-17T04:22:23.744Z,32.62
2023-03-17T04:26:23.694Z,32.54
2023-03-17T04:30:23.674Z,32.39
2023-03-17T04:34:23.681Z,32.37
2023-03-17T04:38:23.656Z,32.31
2023-03-17T04:42:23.716Z,32.31
2023-03-17T04:46:23.663Z,32.50
2023-03-17T04:50:23.630Z,32.35
2023-03-17T04:54:23.648Z,32.38
2023-03-17T04:58:30.857Z,32.37
2023-03-17T05:02:24.611Z,32.40
2023-03-17T05:06:23.580Z,32.47
2023-03-17T05:10:23.596Z,32.35
2023-03-17T05:14:23.601Z,32.26
2023-03-17T05:18:23.577Z,32.19
2023-03-17T05:22:23.557Z,32.17
2023-03-17T05:26:23.559Z,32.19
2023-03-17T05:30:23.547Z,32.17
2023-03-17T05:34:23.568Z,32.13
2023-03-17T05:38:23.515Z,32.15
2023-03-17T05:42:24.058Z,32.13
2023-03-17T05:46:23.506Z,32.13
2023-03-17T05:50:23.463Z,32.06
2023-03-17T05:54:23.446Z,32.08
2023-03-17T05:58:23.457Z,32.08
2023-03-17T06:02:23.480Z,32.17
2023-03-17T06:06:23.440Z,32.12
2023-03-17T06:10:23.425Z,32.14
2023-03-17T06:14:24.131Z,32.13
2023-03-17T06:18:23.418Z,32.17
2023-03-17T06:22:23.359Z,32.26
2023-03-17T06:26:23.332Z,32.25
2023-03-17T06:30:23.338Z,32.37
2023-03-17T06:34:23.339Z,32.55
2023-03-17T06:38:23.304Z,32.52
2023-03-17T06:42:23.566Z,33.92
2023-03-17T06:46:23.441Z,34.30
2023-03-17T06:50:23.582Z,34.61
2023-03-17T06:54:23.592Z,34.93
2023-03-17T06:58:23.611Z,35.02
2023-03-17T07:02:23.610Z,33.75
2023-03-17T07:06:23.174Z,33.28
2023-03-17T07:10:23.598Z,33.16
2023-03-17T07:14:23.127Z,33.47
2023-03-17T07:18:23.109Z,32.80
2023-03-17T07:22:23.053Z,32.90
2023-03-17T07:26:23.030Z,33.31
2023-03-17T07:30:23.122Z,33.47
2023-03-17T07:34:23.197Z,32.06
2023-03-17T07:38:23.391Z,31.85
2023-03-17T07:42:23.600Z,31.50
2023-03-17T07:46:23.656Z,31.84
2023-03-17T07:50:23.606Z,31.81
2023-03-17T07:54:24.125Z,32.09
2023-03-17T07:58:23.412Z,32.63
2023-03-17T08:02:23.679Z,31.52
2023-03-17T08:06:23.369Z,31.61
2023-03-17T08:10:23.347Z,31.98
2023-03-17T08:14:23.638Z,31.72
2023-03-17T08:18:23.276Z,31.54
2023-03-17T08:22:23.631Z,31.91
2023-03-17T08:26:23.177Z,31.88
2023-03-17T08:30:23.157Z,32.51
2023-03-17T08:34:23.104Z,32.80
2023-03-17T08:38:23.629Z,32.60
2023-03-17T08:42:23.632Z,32.09
2023-03-17T08:46:23.744Z,31.19
2023-03-17T08:50:23.230Z,32.51
2023-03-17T08:54:23.654Z,33.73
2023-03-17T08:58:23.390Z,34.13
2023-03-17T09:02:23.703Z,34.61
2023-03-17T09:06:23.305Z,35.17
2023-03-17T09:10:23.289Z,35.64
2023-03-17T09:14:24.176Z,36.04
2023-03-17T09:18:23.659Z,36.49
2023-03-17T09:22:23.158Z,36.92
2023-03-17T09:26:23.126Z,37.30
2023-03-17T09:30:23.121Z,37.68
2023-03-17T09:34:23.026Z,37.96
2023-03-17T09:38:23.175Z,37.07
2023-03-17T09:42:23.173Z,36.80
2023-03-17T09:46:23.011Z,32.61
2023-03-17T09:50:23.166Z,31.02
2023-03-17T09:54:23.139Z,29.96
2023-03-17T09:58:22.805Z,30.15
2023-03-17T10:02:22.779Z,30.28
2023-03-17T10:06:22.799Z,30.32
2023-03-17T10:10:22.897Z,30.00
2023-03-17T10:14:23.191Z,29.58
2023-03-17T10:18:22.840Z,29.31
2023-03-17T10:22:22.781Z,29.28
2023-03-17T10:26:22.756Z,29.42
2023-03-17T10:30:23.181Z,29.74
2023-03-17T10:34:22.673Z,30.29
2023-03-17T10:38:22.663Z,30.38
2023-03-17T10:42:22.706Z,30.72
2023-03-17T10:46:22.764Z,30.60
2023-03-17T10:50:22.692Z,31.48
2023-03-17T10:54:22.566Z,32.32
2023-03-17T10:58:22.645Z,32.31
2023-03-17T11:02:23.202Z,32.78
2023-03-17T11:06:22.785Z,32.91
2023-03-17T11:10:23.222Z,32.68
2023-03-17T11:14:22.913Z,32.76
2023-03-17T11:18:22.978Z,33.41
2023-03-17T11:22:23.016Z,34.00
2023-03-17T11:26:23.023Z,34.56
2023-03-17T11:30:22.982Z,35.12
2023-03-17T11:34:23.226Z,35.63
2023-03-17T11:38:23.754Z,35.51
2023-03-17T11:42:23.733Z,36.04
2023-03-17T11:46:23.585Z,36.26
2023-03-17T11:50:23.737Z,36.81
2023-03-17T11:54:24.269Z,36.16
2023-03-17T11:58:24.008Z,36.19
2023-03-17T12:02:23.935Z,36.60
2023-03-17T12:06:23.910Z,36.53
2023-03-17T12:10:23.858Z,35.97
2023-03-17T12:14:24.223Z,36.01
2023-03-17T12:18:24.702Z,35.87
2023-03-17T12:22:24.215Z,35.90
2023-03-17T12:26:23.746Z,34.57
2023-03-17T12:30:23.718Z,34.43
2023-03-17T12:34:23.727Z,34.31
2023-03-17T12:38:23.733Z,34.20
2023-03-17T12:42:23.703Z,34.37
2023-03-17T12:46:23.688Z,33.97
2023-03-17T12:50:23.633Z,33.43
2023-03-17T12:54:23.763Z,32.81
2023-03-17T12:58:25.974Z,31.78
2023-03-17T13:02:23.507Z,30.01
2023-03-17T13:06:23.434Z,28.92
2023-03-17T13:10:23.432Z,29.31
2023-03-17T13:14:23.372Z,29.08
2023-03-17T13:18:23.344Z,27.86
2023-03-17T13:22:23.334Z,27.32
2023-03-17T13:26:23.267Z,26.77
2023-03-17T13:30:23.313Z,26.10
2023-03-17T13:34:23.207Z,25.19
2023-03-17T13:38:23.161Z,24.65
2023-03-17T13:42:23.172Z,24.90
2023-03-17T13:46:23.139Z,24.53
2023-03-17T13:50:23.062Z,24.53
2023-03-17T13:54:23.038Z,23.74
2023-03-17T13:58:23.022Z,23.05
2023-03-17T14:02:22.972Z,23.27
2023-03-17T14:06:22.942Z,23.17
2023-03-17T14:10:22.901Z,22.90
2023-03-17T14:14:32.574Z,22.97
2023-03-17T14:18:23.835Z,22.95
2023-03-17T14:22:22.780Z,22.92
2023-03-17T14:26:22.716Z,22.86
2023-03-17T14:30:22.693Z,22.66
2023-03-17T14:34:22.690Z,23.44
2023-03-17T14:38:22.842Z,24.61
2023-03-17T14:42:22.954Z,25.64
2023-03-17T14:46:23.191Z,27.41
2023-03-17T14:50:23.177Z,28.13
2023-03-17T14:54:23.338Z,29.46
2023-03-17T14:58:23.445Z,30.69
2023-03-17T15:02:23.652Z,31.02
2023-03-17T15:06:23.750Z,30.93
2023-03-17T15:10:23.864Z,30.91
2023-03-17T15:14:23.953Z,31.00
2023-03-17T15:18:24.140Z,31.13
2023-03-17T15:22:24.272Z,31.20
2023-03-17T15:26:24.395Z,31.31
2023-03-17T15:30:24.771Z,31.40
2023-03-17T15:34:24.641Z,31.47
2023-03-17T15:38:24.794Z,31.53
2023-03-17T15:42:24.957Z,31.60
2023-03-17T15:46:25.072Z,31.70
2023-03-17T15:50:25.200Z,31.83
2023-03-17T15:54:25.354Z,31.85
2023-03-17T15:58:25.463Z,31.93
2023-03-17T16:02:25.641Z,32.03
2023-03-17T16:06:25.784Z,32.11
2023-03-17T16:10:25.904Z,32.15
2023-03-17T16:14:26.034Z,32.21
2023-03-17T16:18:26.177Z,32.25
2023-03-17T16:22:27.311Z,32.35
2023-03-17T16:26:26.491Z,32.37
2023-03-17T16:30:26.666Z,32.43
2023-03-17T16:34:26.798Z,32.49
2023-03-17T16:38:26.967Z,32.57
2023-03-17T16:42:27.133Z,32.64
2023-03-17T16:46:27.484Z,32.70
2023-03-17T16:50:27.514Z,32.76
2023-03-17T16:54:27.664Z,32.79
2023-03-17T16:58:27.859Z,32.85
2023-03-17T17:02:28.083Z,32.89
2023-03-17T17:06:28.208Z,32.95
2023-03-17T17:10:28.462Z,33.00
2023-03-17T17:14:28.580Z,33.06
2023-03-17T17:18:28.778Z,33.10
2023-03-17T17:22:28.911Z,33.17
2023-03-17T17:26:29.153Z,33.18
2023-03-17T17:30:29.832Z,33.22
2023-03-17T17:34:29.538Z,33.23
2023-03-17T17:38:29.774Z,33.27
2023-03-17T17:42:29.709Z,33.33
2023-03-17T17:46:29.712Z,33.38
2023-03-17T17:50:30.026Z,33.35
2023-03-17T17:54:29.587Z,33.36
2023-03-17T17:58:29.600Z,33.41
2023-03-17T18:02:29.536Z,33.43
2023-03-17T18:06:29.494Z,33.42
2023-03-17T18:10:29.498Z,33.42
2023-03-17T18:14:29.433Z,33.46
2023-03-17T18:18:29.383Z,33.47
2023-03-17T18:22:29.580Z,33.49
2023-03-17T18:26:29.565Z,33.50
2023-03-17T18:30:29.947Z,33.49
2023-03-17T18:34:29.472Z,33.52
2023-03-17T18:38:29.446Z,33.47
2023-03-17T18:42:29.383Z,33.50
2023-03-17T18:46:29.323Z,33.48
2023-03-17T18:50:29.685Z,33.45
2023-03-17T18:54:29.302Z,33.40
2023-03-17T18:58:29.314Z,33.41
2023-03-17T19:02:29.277Z,33.37
2023-03-17T19:06:29.231Z,33.38
2023-03-17T19:10:29.428Z,33.40
2023-03-17T19:14:29.198Z,33.40
2023-03-17T19:18:29.164Z,33.35
2023-03-17T19:22:29.097Z,33.36
2023-03-17T19:26:29.442Z,33.43
2023-03-17T19:30:29.238Z,33.38
2023-03-17T19:34:28.993Z,33.37
2023-03-17T19:38:29.125Z,33.35
2023-03-17T19:42:29.076Z,33.27
2023-03-17T19:46:29.072Z,33.28
2023-03-17T19:50:29.319Z,33.34
2023-03-17T19:54:28.944Z,33.39
2023-03-17T19:58:28.908Z,33.39
2023-03-17T20:02:28.871Z,33.42
2023-03-17T20:06:28.833Z,33.39
2023-03-17T20:10:29.028Z,33.37
2023-03-17T20:14:28.789Z,33.37
2023-03-17T20:18:28.909Z,33.37
2023-03-17T20:22:28.892Z,33.40
2023-03-17T20:26:28.831Z,33.37
2023-03-17T20:30:28.859Z,33.34
2023-03-17T20:34:28.757Z,33.31
2023-03-17T20:38:28.744Z,33.30
2023-03-17T20:42:28.665Z,33.29
2023-03-17T20:46:28.666Z,33.27
2023-03-17T20:50:28.600Z,33.19
2023-03-17T20:54:28.574Z,33.18
2023-03-17T20:58:28.558Z,33.15
2023-03-17T21:02:28.512Z,33.15
2023-03-17T21:06:28.633Z,33.11
2023-03-17T21:10:28.820Z,33.13
2023-03-17T21:14:28.981Z,33.14
2023-03-17T21:18:29.098Z,33.08
2023-03-17T21:22:29.260Z,33.03
2023-03-17T21:26:29.446Z,33.00
2023-03-17T21:30:29.825Z,32.99
2023-03-17T21:34:29.763Z,32.95
2023-03-17T21:38:29.884Z,32.98
2023-03-17T21:42:30.047Z,32.90
2023-03-17T21:46:30.170Z,32.94
2023-03-17T21:50:30.322Z,32.90
2023-03-17T21:54:30.378Z,32.93
2023-03-17T21:58:30.423Z,32.89
2023-03-17T22:02:30.490Z,32.86
2023-03-17T22:06:30.689Z,32.82
2023-03-17T22:10:30.975Z,32.82
2023-03-17T22:14:30.768Z,32.80
2023-03-17T22:18:30.835Z,32.78
2023-03-17T22:22:30.847Z,32.76
2023-03-17T22:26:30.856Z,32.81
2023-03-17T22:30:31.025Z,32.73
2023-03-17T22:34:30.909Z,32.75
2023-03-17T22:38:30.937Z,32.77
2023-03-17T22:42:30.899Z,32.71
2023-03-17T22:46:30.905Z,32.75
2023-03-17T22:50:31.192Z,32.72
2023-03-17T22:54:30.829Z,32.65
2023-03-17T22:58:30.834Z,32.67
2023-03-17T23:02:30.836Z,32.70
2023-03-17T23:06:30.828Z,32.62
2023-03-17T23:10:31.067Z,32.56
2023-03-17T23:14:30.765Z,32.61
2023-03-17T23:18:30.733Z,32.56
2023-03-17T23:22:30.726Z,32.48
2023-03-17T23:26:30.738Z,32.49
2023-03-17T23:30:31.242Z,32.41
2023-03-17T23:34:30.668Z,32.50
2023-03-17T23:38:30.651Z,32.43
2023-03-17T23:42:30.632Z,32.45
2023-03-17T23:46:30.731Z,32.36
2023-03-17T23:50:30.911Z,32.39
2023-03-17T23:54:30.606Z,32.32
2023-03-17T23:58:30.596Z,32.32
